Date,TemperatureHighF,TemperatureAvgF,TemperatureLowF,DewpointHighF,DewpointAvgF,DewpointLowF,HumidityHigh,HumidityAvg,HumidityLow,PressureMaxIn,PressureMinIn,WindSpeedMaxMPH,WindSpeedAvgMPH,GustSpeedMaxMPH,PrecipitationSumIn
2013-1-1,22,15,5,19,12,2,91,88,85,30.31,30.04,19,6,20,0.00
2013-1-2,33,22,7,28,19,2,95,86,80,30.36,30.00,15,6,18,0.00
2013-1-3,23,14,4,18,11,0,89,86,82,30.40,30.16,17,7,22,0.00
2013-1-4,22,12,6,15,8,3,87,83,75,30.23,30.10,11,5,15,0.00
2013-1-5,22,10,1,17,7,-2,91,86,81,30.28,30.04,20,6,22,0.00
2013-1-6,28,12,-2,23,8,-5,89,86,79,30.33,29.89,22,7,31,0.00
2013-1-7,33,24,16,27,20,12,91,86,76,30.02,29.90,11,5,13,0.00
2013-1-8,38,29,20,32,25,16,91,84,75,29.99,29.72,20,8,24,0.00
2013-1-9,38,29,18,32,24,14,89,81,74,30.29,29.99,22,8,29,0.00
2013-1-10,40,37,34,34,31,29,94,79,65,30.04,29.51,29,18,42,0.00
2013-1-11,34,26,9,33,25,6,97,94,88,29.65,29.41,19,8,25,0.00
2013-1-12,8,4,0,5,0,-5,88,83,78,30.31,29.68,17,9,23,0.00
2013-1-13,12,4,-4,7,0,-8,86,81,75,30.40,30.27,8,3,11,0.00
2013-1-14,11,0,-9,6,-3,-13,87,84,81,30.51,30.34,13,4,17,0.00
2013-1-15,30,13,2,28,8,-1,94,83,74,30.34,29.77,20,12,25,0.00
2013-1-16,37,24,5,33,20,0,93,83,68,30.34,29.75,22,6,25,0.00
2013-1-17,28,19,6,26,14,1,90,83,76,30.49,30.09,9,4,12,0.00
2013-1-18,39,31,26,33,27,23,92,87,74,30.09,29.76,15,8,24,0.00
2013-1-19,36,21,0,31,16,-6,93,81,67,30.47,29.75,30,9,35,0.00
2013-1-20,8,2,-8,2,-5,-15,84,74,65,30.57,30.42,19,8,30,0.00
2013-1-21,5,-4,-12,-5,-11,-18,78,72,63,30.58,30.46,16,4,18,0.00
2013-1-22,12,5,-4,8,0,-9,85,79,67,30.47,30.27,11,4,12,0.00
2013-1-23,11,4,-6,7,-2,-14,90,77,68,30.74,30.26,18,7,22,0.00
2013-1-24,11,3,-7,6,-5,-16,81,69,59,30.73,30.15,21,11,31,0.00
2013-1-25,20,9,1,17,2,-5,87,73,61,30.39,30.13,18,7,27,0.00
2013-1-26,28,14,1,19,8,-5,88,76,64,30.37,30.00,14,5,21,0.00
2013-1-27,40,29,15,33,25,12,96,87,76,30.00,29.75,13,3,14,0.00
2013-1-28,32,26,23,31,25,22,96,95,94,29.87,29.75,8,3,12,0.00
2013-1-29,28,22,19,27,20,16,96,92,87,30.00,29.71,14,6,19,0.00
2013-1-30,20,3,-14,17,-1,-19,89,82,76,30.10,29.97,20,8,25,0.00
2013-1-31,-7,-13,-26,-14,-18,-30,80,75,70,30.53,30.10,21,7,26,0.00
2013-2-1,12,-2,-27,9,-6,-32,85,80,74,30.50,30.13,18,6,23,0.00
2013-2-2,32,14,6,29,10,3,92,86,83,30.28,30.01,25,7,40,0.00
2013-2-3,21,13,6,14,9,2,87,81,74,30.25,29.94,12,5,16,0.00
2013-2-4,24,11,0,22,8,-4,92,86,75,30.15,29.76,20,9,25,0.00
2013-2-5,30,20,8,27,17,6,93,87,81,30.09,29.75,11,4,18,0.00
2013-2-6,35,26,8,30,23,6,94,89,82,30.11,29.84,16,6,20,0.01
2013-2-7,22,19,17,21,17,15,94,92,90,30.34,30.11,9,4,13,0.00
2013-2-8,31,23,18,26,20,16,93,90,79,30.35,29.98,20,8,23,0.00
2013-2-9,33,28,21,30,26,19,95,90,84,29.98,29.76,17,4,21,0.00
2013-2-10,30,27,22,29,26,20,96,95,94,29.80,29.51,31,12,37,0.00
2013-2-11,21,19,9,20,16,7,94,88,80,30.12,29.80,24,10,32,0.00
2013-2-12,29,18,10,24,15,7,94,87,80,30.05,29.90,16,6,21,0.00
2013-2-13,37,26,17,33,24,15,92,90,86,29.90,29.62,14,8,23,0.01
2013-2-14,28,18,1,26,15,-2,95,88,78,30.37,29.84,18,5,21,0.00
2013-2-15,20,9,-3,15,5,-6,90,85,77,30.48,30.35,4,2,7,0.00
2013-2-16,27,19,1,23,16,-2,92,87,79,30.35,30.01,13,6,15,0.00
2013-2-17,39,29,22,33,26,20,95,89,78,30.00,29.52,19,10,24,0.01
2013-2-18,35,16,5,32,12,2,94,85,78,30.23,29.59,27,14,33,0.00
2013-2-19,5,-5,-12,1,-11,-18,84,77,70,30.59,30.23,23,8,31,0.00
2013-2-20,15,-2,-18,7,-7,-22,86,78,70,30.61,30.40,17,5,19,0.00
2013-2-21,20,13,7,12,7,2,82,76,67,30.42,30.20,11,6,18,0.00
2013-2-22,21,14,9,13,9,5,87,80,67,30.19,30.00,10,4,12,0.00
2013-2-23,26,13,1,19,8,-3,90,83,71,30.00,29.90,8,3,10,0.00
2013-2-24,25,17,8,20,14,5,92,85,74,30.15,29.99,9,2,12,0.00
2013-2-25,28,14,2,23,12,-1,92,88,79,30.20,30.07,8,2,11,0.00
2013-2-26,20,10,1,19,8,-2,92,89,86,30.18,30.08,6,2,8,0.00
2013-2-27,28,16,2,24,13,0,91,88,83,30.29,30.18,16,4,21,0.00
2013-2-28,26,20,14,21,17,11,91,86,81,30.36,30.29,13,6,15,0.00
2013-3-1,21,14,4,16,10,1,91,86,77,30.50,30.37,5,2,6,0.00
2013-3-2,30,19,1,23,14,-2,92,84,71,30.45,30.09,16,6,23,0.00
2013-3-3,34,27,18,31,24,15,92,86,81,30.09,29.75,19,7,25,0.06
2013-3-4,36,31,25,30,27,22,95,87,71,29.92,29.73,15,6,20,0.01
2013-3-5,26,20,13,24,17,10,92,88,83,30.49,29.92,30,12,31,0.00
2013-3-6,21,16,11,16,12,8,90,84,77,30.51,30.30,11,4,18,0.00
2013-3-7,34,26,17,29,22,15,91,85,77,30.30,30.14,26,10,32,0.00
2013-3-8,32,26,18,29,24,16,93,90,87,30.26,30.01,11,4,15,0.00
2013-3-9,32,28,22,30,27,19,96,94,89,30.07,29.82,19,8,28,0.00
2013-3-10,22,17,7,19,14,4,90,85,77,30.27,30.06,22,11,25,0.00
2013-3-11,30,14,1,26,10,-2,91,85,74,30.17,29.95,9,3,14,0.00
2013-3-12,27,22,8,25,18,5,94,86,78,30.40,30.00,26,10,27,0.00
2013-3-13,32,16,-5,28,11,-9,89,83,73,30.46,30.11,21,7,29,0.00
2013-3-14,42,32,20,33,28,18,94,86,68,30.17,30.05,18,5,24,0.00
2013-3-15,32,22,12,30,19,9,92,90,87,30.15,29.92,17,9,23,0.00
2013-3-16,14,8,0,9,4,-4,89,82,74,30.38,30.14,17,5,20,0.00
2013-3-17,32,18,7,31,13,2,94,82,77,30.36,29.57,29,13,37,0.00
2013-3-18,34,14,6,32,10,1,93,80,73,30.14,29.51,32,13,41,0.00
2013-3-19,18,8,-1,12,2,-6,84,78,66,30.50,30.13,22,5,24,0.00
2013-3-20,20,8,-4,10,2,-8,86,77,61,30.51,30.27,7,2,11,0.00
2013-3-21,23,9,-4,15,3,-8,85,78,67,30.27,30.10,11,4,14,0.00
2013-3-22,28,16,4,22,11,0,89,80,72,30.20,30.11,7,3,9,0.00
2013-3-23,27,21,16,22,17,14,91,86,75,30.27,30.19,7,2,8,0.00
2013-3-24,29,21,15,24,18,12,91,87,77,30.31,30.20,14,6,19,0.00
2013-3-25,26,20,12,19,16,9,88,82,69,30.44,30.31,17,9,19,0.00
2013-3-26,26,16,3,20,12,-1,91,84,75,30.44,30.32,11,3,15,0.00
2013-3-27,39,29,18,32,24,15,87,82,70,30.33,30.23,15,8,19,0.00
2013-3-28,43,34,25,36,30,23,94,85,73,30.24,30.19,15,3,17,0.00
2013-3-29,48,37,29,40,33,28,94,86,71,30.22,29.90,13,4,19,0.00
2013-3-30,42,35,28,38,33,27,96,92,84,30.02,29.92,9,3,17,0.01
2013-3-31,34,29,20,32,23,14,96,77,58,30.30,29.97,18,9,23,0.00
2013-4-1,34,24,16,21,17,12,88,75,57,30.41,30.30,8,3,9,0.00
2013-4-2,36,27,20,26,21,18,91,79,59,30.38,30.32,11,4,15,0.00
2013-4-3,64,41,26,47,33,20,85,73,54,30.33,29.89,24,11,30,0.00
2013-4-4,38,34,28,33,28,24,89,79,67,30.27,30.06,15,6,18,0.00
2013-4-5,46,34,24,34,26,19,88,75,56,30.27,29.66,21,8,29,0.00
2013-4-6,48,39,33,40,34,31,93,85,72,29.89,29.62,17,7,19,0.00
2013-4-7,45,37,32,40,33,29,92,87,80,29.91,29.72,11,4,13,0.00
2013-4-8,38,32,23,37,30,17,97,92,78,30.22,29.71,31,10,31,0.00
2013-4-9,27,22,17,19,14,9,82,72,64,30.37,30.19,27,14,32,0.00
2013-4-10,34,29,25,27,20,16,94,71,53,30.39,30.02,18,9,25,0.00
2013-4-11,33,29,28,29,28,27,96,93,87,30.02,29.79,15,8,22,0.09
2013-4-12,34,29,26,27,26,25,95,89,75,29.99,29.86,12,6,17,0.00
2013-4-13,36,27,12,29,23,10,94,86,72,29.99,29.85,15,5,21,0.00
2013-4-14,32,30,28,31,28,27,96,93,88,29.84,29.44,26,7,33,0.00
2013-4-15,38,33,29,32,30,28,97,88,76,30.10,29.44,16,4,21,0.15
2013-4-16,36,30,21,29,25,19,91,83,73,30.40,30.09,7,3,13,0.00
2013-4-17,32,30,28,29,28,27,95,92,85,30.41,30.16,14,7,19,0.06
2013-4-18,32,28,26,29,25,20,95,88,77,30.16,29.95,26,12,29,0.00
2013-4-19,34,28,19,25,21,16,86,76,62,30.17,29.90,17,9,23,0.00
2013-4-20,34,27,16,30,21,14,93,80,58,30.27,30.15,18,7,20,0.00
2013-4-21,40,36,31,36,32,27,95,85,77,30.24,29.99,21,10,25,0.06
2013-4-22,34,30,27,29,26,23,94,86,79,30.41,30.23,17,7,18,0.02
2013-4-23,44,30,16,30,22,13,89,74,54,30.40,30.11,11,5,17,0.00
2013-4-24,43,34,26,37,28,22,95,81,60,30.16,29.95,22,9,32,0.02
2013-4-25,50,38,23,42,32,21,91,79,69,30.18,29.87,24,8,25,0.00
2013-4-26,73,51,31,46,38,30,95,67,27,30.09,29.87,8,3,19,0.00
2013-4-27,80,60,40,46,40,35,82,53,25,30.09,29.69,22,11,30,0.00
2013-4-28,66,56,43,47,42,33,82,62,44,29.85,29.62,19,8,22,0.00
2013-4-29,72,54,32,47,37,29,89,57,27,29.86,29.25,19,6,27,0.00
2013-4-30,63,53,40,48,37,29,86,58,37,30.08,29.23,20,9,31,0.00
2013-5-1,47,38,32,30,25,21,76,61,41,30.60,30.09,18,8,22,0.00
2013-5-2,50,38,24,30,24,19,91,63,32,30.71,30.52,19,6,23,0.00
2013-5-3,51,37,21,30,26,19,93,66,37,30.52,30.24,14,6,22,0.00
2013-5-4,48,42,37,41,34,28,93,72,54,30.26,30.22,14,7,23,0.06
2013-5-5,49,43,39,43,40,37,95,89,79,30.25,30.14,13,4,13,0.09
2013-5-6,66,53,41,50,45,40,96,76,51,30.15,29.99,9,2,12,0.00
2013-5-7,76,61,45,50,45,39,91,61,27,30.00,29.84,20,9,31,0.00
2013-5-8,69,60,49,55,50,46,88,71,54,30.01,29.87,11,4,16,0.00
2013-5-9,67,55,41,46,37,31,78,54,27,30.11,30.01,20,8,25,0.00
2013-5-10,74,56,42,47,40,33,90,59,29,30.12,29.87,23,7,34,0.00
2013-5-11,54,44,32,35,23,13,85,49,21,30.33,30.11,21,9,32,0.00
2013-5-12,66,48,27,32,23,16,83,43,16,30.28,30.00,11,3,18,0.00
2013-5-13,91,70,54,49,40,29,56,36,20,29.99,29.61,26,11,32,0.00
2013-5-14,87,72,57,53,44,30,64,41,14,29.75,29.43,22,9,33,0.00
2013-5-15,79,64,46,51,44,37,81,52,26,29.87,29.75,16,5,18,0.00
2013-5-16,81,67,52,52,45,39,72,48,26,29.83,29.71,25,7,29,0.00
2013-5-17,81,68,55,65,57,47,87,70,53,29.79,29.67,22,7,26,0.00
2013-5-18,84,71,59,64,61,57,97,73,42,29.75,29.58,14,4,31,0.15
2013-5-19,73,66,59,62,60,55,97,80,62,29.58,29.40,22,10,40,0.17
2013-5-20,63,58,55,61,56,55,97,94,86,29.46,29.36,11,3,14,0.54
2013-5-21,57,51,47,57,50,46,98,97,95,29.81,29.41,23,9,25,0.42
2013-5-22,62,52,46,53,48,44,96,88,67,30.07,29.80,19,7,21,0.04
2013-5-23,53,46,42,50,44,41,97,95,88,30.24,30.09,10,2,10,0.00
2013-5-27,56,56,56,53,53,53,92,92,92,29.81,29.81,8,8,14,0.00
2013-5-28,78,71,62,59,56,54,82,60,45,29.64,29.59,11,4,18,0.00
2013-5-29,68,63,58,66,60,55,98,91,77,29.66,29.41,16,4,18,0.40
2013-5-30,77,68,61,65,61,55,96,80,58,29.41,29.26,21,9,28,0.01
2013-5-31,68,60,55,59,56,50,96,84,67,29.46,29.19,15,5,24,0.12
2013-6-1,60,51,45,58,48,43,97,89,69,30.08,29.46,22,11,30,0.10
2013-6-2,66,54,39,48,43,38,97,70,38,30.14,29.97,5,1,8,0.00
2013-6-3,68,58,50,51,47,43,80,68,50,29.98,29.75,24,8,32,0.03
2013-6-4,70,62,56,58,51,48,91,68,47,29.92,29.78,21,6,24,0.00
2013-6-5,63,58,51,55,52,49,94,82,71,30.00,29.90,15,6,22,0.00
2013-6-6,63,56,50,53,51,48,96,84,65,30.03,29.98,8,3,11,0.00
2013-6-7,73,60,45,54,50,44,97,73,45,30.02,29.76,13,4,16,0.00
2013-6-8,65,61,57,58,55,51,97,82,69,29.76,29.66,20,8,26,0.28
2013-6-9,66,60,56,60,57,55,98,92,78,29.82,29.72,12,4,16,0.46
2013-6-10,82,65,49,65,57,48,98,78,49,29.82,29.69,13,5,19,0.01
2013-6-11,77,68,62,63,56,44,96,66,31,29.88,29.70,10,4,17,0.03
2013-6-12,70,63,56,60,55,51,91,77,54,30.03,29.67,20,6,33,0.21
2013-6-13,77,65,51,58,54,49,94,69,45,30.11,29.93,14,4,17,0.00
2013-6-14,84,73,64,68,62,57,83,68,55,29.94,29.66,24,9,37,0.00
2013-6-15,81,70,59,62,52,43,88,58,27,29.90,29.77,12,3,17,0.00
2013-6-16,84,69,52,65,54,47,92,61,28,29.90,29.80,22,5,27,0.15
2013-6-17,77,67,55,59,55,51,94,68,45,30.00,29.87,16,5,22,0.06
2013-6-18,80,68,53,62,57,52,97,72,41,30.03,29.87,9,2,12,0.03
2013-6-19,88,76,62,67,61,56,84,62,35,29.90,29.68,19,8,25,0.03
2013-6-20,85,77,66,72,68,62,88,73,60,29.77,29.64,21,10,30,0.10
2013-6-21,78,69,63,69,62,59,93,79,59,29.96,29.61,20,6,38,0.16
2013-6-22,82,72,61,68,64,59,96,78,59,29.84,29.63,10,4,16,0.00
2013-6-23,80,70,62,68,60,56,98,74,44,29.78,29.56,15,5,34,0.83
2013-6-24,85,73,60,69,64,57,90,75,52,29.79,29.64,14,6,22,0.00
2013-6-25,86,77,67,73,70,64,96,79,57,29.64,29.52,19,8,26,0.13
2013-6-26,89,75,66,67,64,61,94,72,42,29.77,29.57,12,4,18,0.00
2013-6-27,87,75,64,65,59,55,93,62,35,29.87,29.77,14,5,25,0.00
2013-6-28,83,73,60,61,56,54,87,59,38,29.93,29.87,25,9,38,0.00
2013-6-29,80,70,58,62,58,56,93,68,45,29.97,29.88,13,5,19,0.00
2013-6-30,80,71,62,60,56,52,90,61,39,30.11,29.97,8,2,12,0.00
2013-7-1,86,72,56,61,56,51,91,60,33,30.18,30.09,10,2,11,0.00
2013-7-2,88,75,63,62,57,51,88,57,30,30.10,29.97,6,2,9,0.00
2013-7-3,86,76,59,63,58,53,89,58,32,29.97,29.78,11,4,18,0.00
2013-7-4,90,77,66,70,62,58,78,61,43,29.78,29.62,19,9,26,0.00
2013-7-5,90,77,64,70,65,61,92,68,43,29.69,29.64,6,2,13,0.00
2013-7-6,87,76,69,75,69,66,93,79,62,29.70,29.62,9,3,16,0.37
2013-7-7,83,75,68,71,66,61,98,76,54,29.90,29.70,13,4,17,0.00
2013-7-8,87,73,59,68,63,57,95,73,41,29.93,29.79,8,3,15,0.00
2013-7-9,83,72,63,69,66,61,98,83,56,30.00,29.68,18,5,44,0.84
2013-7-10,80,69,54,63,58,53,97,71,43,30.08,29.95,8,2,10,0.01
2013-7-11,87,75,63,71,65,56,86,71,57,29.96,29.70,27,11,34,0.00
2013-7-12,92,81,71,77,70,64,89,70,59,29.72,29.61,24,12,32,0.00
2013-7-13,88,79,73,79,74,70,96,85,72,29.84,29.72,8,4,12,0.00
2013-7-14,76,74,71,74,71,69,97,92,86,30.06,29.83,14,5,17,1.35
2013-7-15,85,75,68,72,69,65,98,84,62,30.07,29.97,13,6,20,0.02
2013-7-16,86,78,70,72,69,65,91,75,57,30.07,29.98,17,9,24,0.00
2013-7-17,89,79,69,73,70,67,91,74,55,30.09,29.93,16,8,23,0.00
2013-7-18,92,82,72,79,72,68,88,73,58,29.93,29.64,19,8,23,0.00
2013-7-19,84,74,63,71,63,59,89,71,48,29.89,29.72,12,4,13,0.00
2013-7-20,77,68,60,64,61,58,93,79,63,29.92,29.83,10,3,15,0.00
2013-7-21,85,73,61,69,64,56,86,74,54,29.85,29.58,15,4,21,0.00
2013-7-22,76,71,63,69,62,56,97,75,56,29.86,29.59,14,6,19,0.00
2013-7-23,74,65,55,57,55,53,93,72,51,30.00,29.86,8,3,13,0.00
2013-7-24,85,71,59,65,60,55,91,71,44,30.03,29.88,11,2,12,0.00
2013-7-25,81,69,58,65,60,52,96,74,50,29.98,29.87,11,4,18,0.00
2013-7-26,69,61,52,53,50,45,93,68,44,30.16,29.99,16,7,25,0.00
2013-7-27,70,59,45,49,46,43,93,66,43,30.18,30.01,14,4,15,0.00
2013-7-28,76,62,45,54,48,42,94,64,38,30.04,29.95,8,2,10,0.00
2013-7-29,68,62,55,61,56,50,92,81,61,30.00,29.93,15,5,20,0.26
2013-7-30,74,65,59,66,62,58,95,89,74,30.08,29.94,15,2,20,0.05
2013-7-31,78,68,58,64,58,54,97,74,45,30.12,29.99,9,3,14,0.12
2013-8-1,79,67,53,61,56,51,93,70,46,30.01,29.84,11,2,12,0.00
2013-8-2,76,66,57,60,56,53,89,73,51,30.03,29.86,7,2,11,0.00
2013-8-3,77,66,53,59,55,51,93,70,48,30.16,30.03,8,2,11,0.00
2013-8-4,75,66,59,63,58,52,89,74,56,30.17,29.90,12,5,25,0.01
2013-8-5,80,68,57,66,62,56,98,84,61,29.88,29.76,12,2,16,0.04
2013-8-6,84,71,62,67,62,59,93,76,45,29.83,29.66,15,5,25,0.00
2013-8-7,79,66,52,59,56,51,95,73,50,29.97,29.84,7,2,10,0.00
2013-8-8,76,67,59,64,58,54,93,74,48,30.00,29.90,8,3,13,0.03
2013-8-9,76,64,53,56,53,49,94,70,42,30.12,30.00,10,3,15,0.00
2013-8-10,76,63,50,64,57,48,96,80,53,30.15,30.00,6,1,8,0.07
2013-8-11,81,68,58,64,61,57,98,79,52,30.03,29.97,7,2,11,0.01
2013-8-12,79,69,57,62,57,50,91,68,37,30.07,30.01,8,2,11,0.00
2013-8-13,76,65,52,58,51,44,86,64,32,30.17,30.07,8,3,10,0.00
2013-8-14,79,65,54,61,55,50,92,73,46,30.13,30.00,9,3,14,0.00
2013-8-15,78,65,54,63,57,53,96,77,45,30.07,30.00,7,3,11,0.00
2013-8-16,75,63,52,62,58,51,97,83,61,30.10,30.04,12,5,19,0.00
2013-8-17,84,69,60,70,64,58,96,83,64,30.05,29.90,19,9,23,0.00
2013-8-18,81,72,63,71,66,59,88,80,69,29.93,29.80,20,9,26,0.00
2013-8-19,90,76,65,75,69,63,94,80,59,29.86,29.73,10,4,13,0.00
2013-8-20,94,80,67,78,71,66,98,78,44,29.75,29.65,14,5,22,0.00
2013-8-21,84,75,66,75,66,58,96,74,52,29.97,29.68,12,5,16,0.00
2013-8-22,81,71,59,58,54,51,78,59,39,30.11,29.97,10,4,14,0.00
2013-8-23,88,75,59,73,66,55,87,73,59,30.04,29.77,16,7,24,0.00
2013-8-24,94,83,75,76,72,69,83,72,53,29.78,29.64,24,13,35,0.00
2013-8-25,91,82,75,77,73,70,88,74,57,29.84,29.71,15,6,19,0.00
2013-8-26,94,83,73,77,73,70,92,74,50,29.82,29.67,12,4,17,0.00
2013-8-27,93,81,70,75,71,65,95,75,41,29.84,29.68,10,4,14,0.00
2013-8-28,88,79,71,77,71,66,97,78,57,29.89,29.79,17,3,26,0.08
2013-8-29,94,81,72,77,72,68,93,77,53,29.83,29.73,11,5,18,0.00
2013-8-30,88,76,65,71,66,62,97,75,45,29.91,29.76,9,3,13,0.00
2013-8-31,90,73,61,73,66,57,94,80,50,29.84,29.65,18,5,27,0.09
2013-9-1,73,64,56,60,56,52,94,76,51,30.00,29.82,13,5,20,0.00
2013-9-2,79,63,45,57,53,44,96,72,45,30.09,29.94,7,2,14,0.00
2013-9-3,86,71,55,70,61,52,90,74,54,29.96,29.86,11,4,16,0.00
2013-9-4,87,72,61,72,64,58,95,78,58,30.04,29.92,13,4,15,0.00
2013-9-5,90,76,62,68,64,57,93,69,43,30.05,29.90,18,6,24,0.00
2013-9-6,87,77,69,76,69,64,93,77,64,29.90,29.76,10,4,17,0.04
2013-9-7,90,77,65,73,69,63,97,79,53,29.92,29.80,13,4,15,0.00
2013-9-8,78,71,66,71,68,64,97,88,77,29.95,29.70,14,4,20,0.32
2013-9-9,79,73,66,71,68,64,96,86,69,29.75,29.54,14,4,18,0.01
2013-9-10,79,68,58,65,61,56,95,78,53,29.94,29.75,10,2,14,0.00
2013-9-11,84,67,53,63,55,49,96,69,35,30.13,29.94,13,4,18,0.00
2013-9-12,74,61,45,55,50,43,94,70,43,30.25,30.13,10,3,16,0.00
2013-9-13,78,62,46,54,50,45,96,69,37,30.19,29.91,14,4,20,0.00
2013-9-14,71,62,57,61,56,51,97,83,67,29.92,29.69,14,7,24,0.28
2013-9-15,62,56,48,57,52,46,95,88,67,30.29,29.86,14,5,18,0.01
2013-9-16,71,58,46,55,49,44,97,76,51,30.30,30.05,18,6,21,0.00
2013-9-17,69,62,56,62,57,50,92,83,73,30.05,29.71,18,10,26,0.00
2013-9-18,92,75,64,71,67,62,95,78,45,29.71,29.41,21,7,33,0.12
2013-9-19,71,63,55,65,55,48,97,76,47,29.91,29.55,12,5,22,0.00
2013-9-20,65,55,45,49,44,41,89,70,43,30.00,29.91,17,5,24,0.00
2013-9-21,73,56,39,48,42,36,95,65,33,29.98,29.75,13,3,15,0.00
2013-9-22,88,72,57,61,54,46,79,56,37,29.75,29.49,28,13,36,0.00
2013-9-23,81,71,62,54,52,50,65,52,38,29.72,29.52,31,14,35,0.00
2013-9-24,77,65,55,57,53,41,95,70,29,29.88,29.72,9,4,14,0.00
2013-9-25,79,66,54,59,56,52,92,70,47,29.83,29.58,24,9,31,0.00
2013-9-26,82,71,63,61,59,55,82,67,46,29.70,29.53,22,10,34,0.00
2013-9-27,63,56,52,55,50,48,95,81,73,29.78,29.64,13,6,19,0.09
2013-9-28,66,53,44,50,46,40,96,79,41,29.86,29.67,17,4,19,0.74
2013-9-29,81,60,42,51,45,40,90,63,28,29.86,29.53,21,7,31,0.00
2013-9-30,81,64,49,53,50,46,89,63,34,29.55,29.40,16,4,30,0.00
2013-10-1,72,60,48,51,41,35,83,55,27,29.92,29.50,27,4,29,0.00
2013-10-2,69,57,48,52,44,37,92,65,35,29.93,29.78,18,5,27,0.00
2013-10-3,53,50,47,50,47,45,95,91,83,30.01,29.86,17,6,21,0.13
2013-10-4,51,45,43,46,43,42,98,93,82,30.01,29.75,26,12,32,0.65
2013-10-5,49,44,40,49,41,37,98,89,76,29.86,29.66,21,5,34,0.52
2013-10-6,62,48,40,44,40,35,97,77,44,29.96,29.84,19,8,24,0.01
2013-10-7,71,52,36,50,43,34,96,75,43,29.98,29.76,10,4,14,0.00
2013-10-8,76,62,48,53,48,45,90,62,43,29.75,29.56,19,9,27,0.00
2013-10-9,72,57,43,54,47,41,96,73,41,29.92,29.73,8,3,15,0.00
2013-10-10,74,62,51,58,53,46,93,75,56,29.86,29.60,14,5,23,0.00
2013-10-11,69,61,48,58,53,43,93,74,56,29.60,29.22,33,14,40,0.03
2013-10-12,58,49,38,43,36,31,81,63,38,30.22,29.59,20,7,32,0.00
2013-10-13,56,43,30,40,35,27,90,73,50,30.40,30.22,10,4,16,0.00
2013-10-14,54,47,43,48,42,37,98,86,55,30.26,29.80,18,8,28,1.75
2013-10-15,44,42,33,43,40,31,98,94,83,30.08,29.75,25,11,30,0.18
2013-10-16,58,39,25,42,33,24,96,80,45,30.08,29.86,15,4,17,0.01
2013-10-17,44,39,32,41,35,28,96,86,70,30.04,29.84,20,5,23,0.08
2013-10-18,47,35,24,37,31,22,93,84,64,30.06,29.86,11,4,16,0.00
2013-10-19,47,41,37,38,32,24,92,74,47,29.86,29.71,16,5,24,0.00
2013-10-20,46,39,32,44,35,26,95,86,75,30.02,29.58,23,8,28,0.03
2013-10-21,43,36,29,30,28,25,90,74,52,30.04,29.96,10,2,16,0.00
2013-10-22,39,35,29,31,29,27,90,80,65,30.12,29.98,9,2,11,0.00
2013-10-23,40,35,28,34,30,26,96,83,60,30.25,30.07,10,4,16,0.01
2013-10-24,43,35,26,33,29,23,90,79,65,30.37,30.25,13,4,17,0.00
2013-10-25,66,41,21,46,33,19,93,76,48,30.35,29.88,20,7,26,0.00
2013-10-26,46,36,26,34,27,23,89,72,49,30.25,30.01,13,5,18,0.00
2013-10-27,52,38,28,36,30,25,88,74,51,30.25,29.83,16,7,23,0.00
2013-10-28,38,30,24,27,24,21,89,77,61,30.50,30.25,14,6,20,0.00
2013-10-29,32,30,27,31,28,22,96,93,75,30.45,30.11,14,4,14,0.00
2013-10-30,34,33,32,33,32,31,97,97,96,30.12,29.76,6,2,7,0.10
2013-10-31,47,38,33,41,35,32,98,90,69,29.76,29.47,10,4,14,0.10
2013-11-1,47,39,30,40,35,28,96,87,74,30.02,29.55,21,6,27,0.01
2013-11-2,54,38,24,39,32,22,94,80,55,30.12,29.94,10,3,14,0.00
2013-11-3,55,46,36,38,35,32,88,66,52,29.93,29.57,33,13,41,0.00
2013-11-4,45,37,24,35,28,20,93,73,51,30.15,29.64,14,4,23,0.00
2013-11-5,38,30,21,26,22,18,90,73,46,30.28,30.16,6,2,9,0.00
2013-11-6,41,27,16,31,22,14,93,84,65,30.24,30.12,15,5,21,0.00
2013-11-7,50,30,16,30,22,13,93,75,41,30.37,30.14,13,4,21,0.00
2013-11-8,51,41,27,41,35,24,94,80,61,30.13,29.54,27,9,38,0.10
2013-11-9,43,36,21,39,30,18,92,77,55,30.36,29.74,24,8,32,0.00
2013-11-10,44,30,16,34,24,14,93,81,60,30.37,30.12,18,7,28,0.00
2013-11-11,22,16,4,14,7,0,85,69,55,30.88,30.35,16,7,23,0.00
2013-11-12,35,19,2,22,11,-1,87,71,43,30.88,30.33,20,8,26,0.00
2013-11-13,60,39,27,41,31,22,89,74,48,30.32,29.91,17,8,25,0.00
2013-11-14,52,38,28,39,33,26,92,81,61,29.90,29.80,16,4,22,0.00
2013-11-15,57,40,22,43,32,21,94,77,51,29.82,29.41,25,10,34,0.00
2013-11-16,46,39,33,41,36,31,93,88,80,29.43,29.20,14,4,16,0.00
2013-11-17,39,32,22,35,29,20,97,89,80,30.03,29.38,17,5,20,0.00
2013-11-18,41,30,18,29,25,16,92,80,62,30.22,30.04,9,3,13,0.00
2013-11-19,55,43,31,37,31,27,85,64,42,30.08,29.57,28,12,35,0.00
2013-11-20,47,33,23,37,27,16,88,78,67,30.22,29.61,18,8,27,0.00
2013-11-21,23,15,3,17,7,-2,82,73,64,30.75,30.23,22,10,32,0.00
2013-11-22,27,11,0,16,5,-4,84,76,56,30.91,30.64,18,8,22,0.00
2013-11-23,16,6,-5,4,-1,-9,84,73,52,31.04,30.67,13,4,17,0.00
2013-11-24,47,28,11,27,17,4,80,66,42,30.67,29.96,33,14,37,0.00
2013-11-25,36,31,25,27,24,21,88,75,61,30.25,29.97,23,9,30,0.00
2013-11-26,27,17,6,19,7,1,82,68,46,30.51,30.25,20,8,30,0.00
2013-11-27,33,19,1,18,10,-2,86,72,51,30.50,30.00,23,9,31,0.00
2013-11-28,25,21,12,19,15,7,83,76,66,30.49,30.22,14,5,20,0.00
2013-11-29,39,25,14,26,19,10,89,76,61,30.47,30.06,24,9,35,0.00
2013-11-30,36,27,16,27,22,14,93,82,71,30.23,30.06,8,2,11,0.00
2013-12-1,42,33,23,29,25,20,89,75,54,30.22,29.77,15,5,18,0.00
2013-12-2,41,34,26,34,30,25,94,84,69,29.76,29.50,13,5,17,0.01
2013-12-3,26,21,17,25,19,14,94,90,87,29.93,29.68,18,9,23,0.00
2013-12-4,17,13,6,15,10,1,91,88,81,30.05,29.80,23,12,36,0.00
2013-12-5,5,-2,-14,0,-8,-20,82,76,71,30.54,30.06,16,7,25,0.00
2013-12-6,0,-11,-20,-8,-16,-25,83,76,69,30.86,30.55,8,3,12,0.00
2013-12-7,-6,-16,-26,-13,-21,-31,82,78,72,30.88,30.64,10,4,12,0.00
2013-12-8,10,1,-11,5,-3,-15,87,83,79,30.64,30.19,11,4,13,0.00
2013-12-9,19,-3,-18,14,-8,-23,90,79,73,30.30,29.87,27,10,34,0.00
2013-12-10,17,4,-10,14,-1,-14,89,80,71,30.56,29.99,21,8,31,0.00
2013-12-11,11,-4,-20,6,-10,-25,82,78,72,30.70,30.35,20,8,28,0.00
2013-12-12,27,14,3,21,10,0,87,83,76,30.39,30.16,13,5,17,0.00
2013-12-13,11,4,0,7,0,-4,85,83,80,30.43,30.17,15,7,22,0.00
2013-12-14,12,4,0,7,0,-4,83,81,78,30.43,30.26,10,4,13,0.00
2013-12-15,9,3,-1,5,-2,-7,83,80,75,30.29,30.08,10,6,12,0.00
2013-12-16,35,19,6,29,15,2,88,84,75,30.11,30.00,17,7,24,0.00
2013-12-17,34,25,15,28,18,11,85,77,68,30.25,29.92,17,6,27,0.00
2013-12-18,39,28,19,32,23,15,87,81,70,29.98,29.69,19,7,26,0.00
2013-12-19,18,3,-1,14,-2,-6,86,81,78,30.27,29.98,20,10,26,0.00
2013-12-20,8,1,-5,4,-3,-8,86,84,81,30.25,29.95,10,4,13,0.00
2013-12-21,3,-2,-8,-1,-6,-12,86,84,82,30.25,29.95,14,5,15,0.00
2013-12-22,0,-5,-15,-5,-10,-20,84,80,77,30.61,30.25,13,6,15,0.00
2013-12-23,-6,-16,-22,-14,-21,-28,79,75,66,30.79,30.55,10,3,11,0.00
2013-12-24,18,9,-18,16,5,-23,91,82,66,30.55,30.17,23,10,34,0.00
2013-12-25,31,25,17,30,21,14,96,87,78,30.30,30.11,26,6,26,0.00
2013-12-26,34,26,15,28,22,13,92,88,77,30.20,30.05,12,4,19,0.00
2013-12-27,42,28,14,35,25,12,94,88,74,30.14,29.93,17,7,23,0.00
2013-12-28,31,17,-7,28,14,-15,93,86,68,30.50,29.72,26,12,39,0.00
2013-12-29,1,-6,-14,-5,-13,-19,79,73,66,30.59,30.28,17,6,27,0.00
2013-12-30,10,4,-5,6,0,-9,86,82,76,30.40,30.14,14,5,18,0.00
2013-12-31,0,-6,-13,-4,-10,-18,85,80,74,30.52,30.32,14,5,16,0.00
2014-1-1,0,-7,-16,-6,-12,-21,83,81,74,30.61,30.49,7,3,11,0.00
2014-1-2,2,-14,-26,-3,-18,-31,82,79,76,30.68,30.29,21,4,26,0.00